sensor_id;sensor_type;location;lat;lon;timestamp;P1;durP1;ratioP1;P2;durP2;ratioP2
38224;SDS011;24025;48.138;11.428;2023-05-07T00:00:54;8.02;;;3.22;;
38224;SDS011;24025;48.138;11.428;2023-05-07T00:03:26;4.72;;;3.30;;
38224;SDS011;24025;48.138;11.428;2023-05-07T00:05:59;4.13;;;2.95;;
38224;SDS011;24025;48.138;11.428;2023-05-07T00:08:31;6.05;;;3.30;;
38224;SDS011;24025;48.138;11.428;2023-05-07T00:11:02;10.50;;;3.45;;
38224;SDS011;24025;48.138;11.428;2023-05-07T00:13:34;7.47;;;3.10;;
38224;SDS011;24025;48.138;11.428;2023-05-07T00:16:06;5.82;;;3.30;;
38224;SDS011;24025;48.138;11.428;2023-05-07T00:18:38;5.90;;;3.03;;
38224;SDS011;24025;48.138;11.428;2023-05-07T00:21:10;6.25;;;3.30;;
38224;SDS011;24025;48.138;11.428;2023-05-07T00:23:42;4.63;;;2.83;;
38224;SDS011;24025;48.138;11.428;2023-05-07T00:26:13;4.15;;;2.95;;
38224;SDS011;24025;48.138;11.428;2023-05-07T00:28:45;5.93;;;3.00;;
38224;SDS011;24025;48.138;11.428;2023-05-07T00:31:17;4.47;;;3.38;;
38224;SDS011;24025;48.138;11.428;2023-05-07T00:33:48;4.72;;;3.13;;
38224;SDS011;24025;48.138;11.428;2023-05-07T00:36:20;6.60;;;4.13;;
38224;SDS011;24025;48.138;11.428;2023-05-07T00:38:51;10.10;;;3.65;;
38224;SDS011;24025;48.138;11.428;2023-05-07T00:41:24;5.55;;;3.78;;
38224;SDS011;24025;48.138;11.428;2023-05-07T00:43:56;5.35;;;3.25;;
38224;SDS011;24025;48.138;11.428;2023-05-07T00:46:28;8.20;;;3.20;;
38224;SDS011;24025;48.138;11.428;2023-05-07T00:49:02;9.18;;;3.72;;
38224;SDS011;24025;48.138;11.428;2023-05-07T00:51:33;6.35;;;3.20;;
38224;SDS011;24025;48.138;11.428;2023-05-07T00:54:05;6.78;;;3.35;;
38224;SDS011;24025;48.138;11.428;2023-05-07T00:56:37;6.70;;;3.40;;
38224;SDS011;24025;48.138;11.428;2023-05-07T00:59:10;3.90;;;3.10;;
38224;SDS011;24025;48.138;11.428;2023-05-07T01:01:42;6.85;;;2.92;;
38224;SDS011;24025;48.138;11.428;2023-05-07T01:04:13;8.13;;;3.28;;
38224;SDS011;24025;48.138;11.428;2023-05-07T01:06:45;4.18;;;2.92;;
38224;SDS011;24025;48.138;11.428;2023-05-07T01:11:51;4.63;;;2.90;;
38224;SDS011;24025;48.138;11.428;2023-05-07T01:14:24;6.07;;;4.25;;
38224;SDS011;24025;48.138;11.428;2023-05-07T01:16:56;6.72;;;3.42;;
38224;SDS011;24025;48.138;11.428;2023-05-07T01:19:30;6.22;;;2.97;;
38224;SDS011;24025;48.138;11.428;2023-05-07T01:22:02;7.47;;;2.83;;
38224;SDS011;24025;48.138;11.428;2023-05-07T01:24:39;5.13;;;2.63;;
38224;SDS011;24025;48.138;11.428;2023-05-07T01:27:11;6.07;;;2.90;;
38224;SDS011;24025;48.138;11.428;2023-05-07T01:29:42;6.60;;;2.80;;
38224;SDS011;24025;48.138;11.428;2023-05-07T01:32:14;13.30;;;5.32;;
38224;SDS011;24025;48.138;11.428;2023-05-07T01:34:50;6.97;;;3.50;;
38224;SDS011;24025;48.138;11.428;2023-05-07T01:37:24;4.10;;;2.85;;
38224;SDS011;24025;48.138;11.428;2023-05-07T01:39:57;5.75;;;2.50;;
38224;SDS011;24025;48.138;11.428;2023-05-07T01:42:29;4.82;;;2.90;;
38224;SDS011;24025;48.138;11.428;2023-05-07T01:45:01;5.00;;;2.75;;
38224;SDS011;24025;48.138;11.428;2023-05-07T01:50:08;5.35;;;2.55;;
38224;SDS011;24025;48.138;11.428;2023-05-07T01:52:41;4.25;;;2.70;;
38224;SDS011;24025;48.138;11.428;2023-05-07T01:55:13;6.80;;;2.42;;
38224;SDS011;24025;48.138;11.428;2023-05-07T01:57:44;4.25;;;3.15;;
38224;SDS011;24025;48.138;11.428;2023-05-07T02:00:16;3.45;;;2.60;;
38224;SDS011;24025;48.138;11.428;2023-05-07T02:02:48;5.72;;;2.58;;
38224;SDS011;24025;48.138;11.428;2023-05-07T02:05:20;7.68;;;2.55;;
38224;SDS011;24025;48.138;11.428;2023-05-07T02:07:52;4.90;;;3.10;;
38224;SDS011;24025;48.138;11.428;2023-05-07T02:10:23;6.88;;;2.75;;
38224;SDS011;24025;48.138;11.428;2023-05-07T02:12:55;7.93;;;2.90;;
38224;SDS011;24025;48.138;11.428;2023-05-07T02:15:27;2.50;;;2.22;;
38224;SDS011;24025;48.138;11.428;2023-05-07T02:18:03;3.63;;;3.17;;
38224;SDS011;24025;48.138;11.428;2023-05-07T02:20:36;6.85;;;2.95;;
38224;SDS011;24025;48.138;11.428;2023-05-07T02:23:08;4.68;;;2.47;;
38224;SDS011;24025;48.138;11.428;2023-05-07T02:25:39;10.40;;;2.65;;
38224;SDS011;24025;48.138;11.428;2023-05-07T02:28:11;3.90;;;2.35;;
38224;SDS011;24025;48.138;11.428;2023-05-07T02:30:43;3.40;;;2.05;;
38224;SDS011;24025;48.138;11.428;2023-05-07T02:33:15;3.85;;;2.75;;
38224;SDS011;24025;48.138;11.428;2023-05-07T02:35:46;10.00;;;2.67;;
38224;SDS011;24025;48.138;11.428;2023-05-07T02:38:18;5.63;;;2.28;;
38224;SDS011;24025;48.138;11.428;2023-05-07T02:40:49;6.63;;;2.38;;
38224;SDS011;24025;48.138;11.428;2023-05-07T02:43:21;2.97;;;2.17;;
38224;SDS011;24025;48.138;11.428;2023-05-07T02:48:34;3.33;;;1.90;;
38224;SDS011;24025;48.138;11.428;2023-05-07T02:51:06;3.15;;;1.88;;
38224;SDS011;24025;48.138;11.428;2023-05-07T02:53:37;6.38;;;2.42;;
38224;SDS011;24025;48.138;11.428;2023-05-07T02:56:09;8.30;;;2.00;;
38224;SDS011;24025;48.138;11.428;2023-05-07T02:58:40;4.25;;;1.70;;
38224;SDS011;24025;48.138;11.428;2023-05-07T03:01:13;2.50;;;2.00;;
38224;SDS011;24025;48.138;11.428;2023-05-07T03:03:45;5.88;;;2.17;;
38224;SDS011;24025;48.138;11.428;2023-05-07T03:06:16;4.28;;;2.30;;
38224;SDS011;24025;48.138;11.428;2023-05-07T03:08:48;5.68;;;2.53;;
38224;SDS011;24025;48.138;11.428;2023-05-07T03:11:20;4.10;;;2.13;;
38224;SDS011;24025;48.138;11.428;2023-05-07T03:13:51;6.88;;;2.50;;
38224;SDS011;24025;48.138;11.428;2023-05-07T03:16:23;3.92;;;2.42;;
38224;SDS011;24025;48.138;11.428;2023-05-07T03:18:55;5.05;;;2.53;;
38224;SDS011;24025;48.138;11.428;2023-05-07T03:21:26;6.15;;;2.22;;
38224;SDS011;24025;48.138;11.428;2023-05-07T03:23:58;6.65;;;2.50;;
38224;SDS011;24025;48.138;11.428;2023-05-07T03:26:30;7.00;;;2.92;;
38224;SDS011;24025;48.138;11.428;2023-05-07T03:29:01;6.25;;;2.40;;
38224;SDS011;24025;48.138;11.428;2023-05-07T03:31:33;2.05;;;1.63;;
38224;SDS011;24025;48.138;11.428;2023-05-07T03:34:04;2.20;;;2.00;;
38224;SDS011;24025;48.138;11.428;2023-05-07T03:36:36;6.57;;;2.40;;
38224;SDS011;24025;48.138;11.428;2023-05-07T03:39:07;2.30;;;1.70;;
38224;SDS011;24025;48.138;11.428;2023-05-07T03:41:39;4.20;;;1.55;;
38224;SDS011;24025;48.138;11.428;2023-05-07T03:44:11;1.75;;;1.40;;
38224;SDS011;24025;48.138;11.428;2023-05-07T03:46:42;2.17;;;1.80;;
38224;SDS011;24025;48.138;11.428;2023-05-07T03:49:14;2.70;;;1.90;;
38224;SDS011;24025;48.138;11.428;2023-05-07T03:51:46;2.85;;;1.70;;
38224;SDS011;24025;48.138;11.428;2023-05-07T03:54:17;6.78;;;1.73;;
38224;SDS011;24025;48.138;11.428;2023-05-07T03:59:22;1.90;;;1.50;;
38224;SDS011;24025;48.138;11.428;2023-05-07T04:01:53;5.00;;;1.85;;
38224;SDS011;24025;48.138;11.428;2023-05-07T04:04:25;1.70;;;1.52;;
38224;SDS011;24025;48.138;11.428;2023-05-07T04:06:57;3.25;;;1.80;;
38224;SDS011;24025;48.138;11.428;2023-05-07T04:09:28;2.65;;;1.70;;
38224;SDS011;24025;48.138;11.428;2023-05-07T04:12:00;2.92;;;1.90;;
38224;SDS011;24025;48.138;11.428;2023-05-07T04:14:32;2.05;;;1.67;;
38224;SDS011;24025;48.138;11.428;2023-05-07T04:17:04;4.90;;;1.70;;
38224;SDS011;24025;48.138;11.428;2023-05-07T04:19:38;2.83;;;1.70;;
38224;SDS011;24025;48.138;11.428;2023-05-07T04:22:09;3.10;;;1.77;;
38224;SDS011;24025;48.138;11.428;2023-05-07T04:24:41;6.68;;;1.90;;
38224;SDS011;24025;48.138;11.428;2023-05-07T04:27:13;4.20;;;1.95;;
38224;SDS011;24025;48.138;11.428;2023-05-07T04:29:44;3.15;;;2.00;;
38224;SDS011;24025;48.138;11.428;2023-05-07T04:32:18;4.13;;;2.05;;
38224;SDS011;24025;48.138;11.428;2023-05-07T04:34:50;2.83;;;1.95;;
38224;SDS011;24025;48.138;11.428;2023-05-07T04:37:21;4.90;;;2.85;;
38224;SDS011;24025;48.138;11.428;2023-05-07T04:39:53;4.38;;;1.85;;
38224;SDS011;24025;48.138;11.428;2023-05-07T04:42:25;3.75;;;2.10;;
38224;SDS011;24025;48.138;11.428;2023-05-07T04:44:56;2.45;;;2.00;;
38224;SDS011;24025;48.138;11.428;2023-05-07T04:47:28;4.70;;;2.28;;
38224;SDS011;24025;48.138;11.428;2023-05-07T04:49:59;4.22;;;1.88;;
38224;SDS011;24025;48.138;11.428;2023-05-07T04:52:31;2.95;;;2.00;;
38224;SDS011;24025;48.138;11.428;2023-05-07T04:55:02;3.15;;;1.55;;
38224;SDS011;24025;48.138;11.428;2023-05-07T04:57:34;2.80;;;1.90;;
38224;SDS011;24025;48.138;11.428;2023-05-07T05:00:06;6.43;;;1.90;;
38224;SDS011;24025;48.138;11.428;2023-05-07T05:02:40;7.07;;;2.28;;
38224;SDS011;24025;48.138;11.428;2023-05-07T05:05:12;3.00;;;2.08;;
38224;SDS011;24025;48.138;11.428;2023-05-07T05:07:44;2.95;;;1.90;;
38224;SDS011;24025;48.138;11.428;2023-05-07T05:10:15;4.03;;;1.77;;
38224;SDS011;24025;48.138;11.428;2023-05-07T05:12:47;3.08;;;2.05;;
38224;SDS011;24025;48.138;11.428;2023-05-07T05:15:19;2.10;;;1.90;;
38224;SDS011;24025;48.138;11.428;2023-05-07T05:17:50;5.28;;;1.80;;
38224;SDS011;24025;48.138;11.428;2023-05-07T05:20:22;2.40;;;2.05;;
38224;SDS011;24025;48.138;11.428;2023-05-07T05:22:54;4.00;;;1.85;;
38224;SDS011;24025;48.138;11.428;2023-05-07T05:25:25;2.03;;;1.80;;
38224;SDS011;24025;48.138;11.428;2023-05-07T05:27:57;2.47;;;1.60;;
38224;SDS011;24025;48.138;11.428;2023-05-07T05:30:29;11.07;;;2.10;;
38224;SDS011;24025;48.138;11.428;2023-05-07T05:33:00;1.98;;;1.73;;
38224;SDS011;24025;48.138;11.428;2023-05-07T05:35:32;1.90;;;1.50;;
38224;SDS011;24025;48.138;11.428;2023-05-07T05:38:04;2.92;;;1.77;;
38224;SDS011;24025;48.138;11.428;2023-05-07T05:40:35;2.90;;;2.00;;
38224;SDS011;24025;48.138;11.428;2023-05-07T05:43:07;4.38;;;1.73;;
38224;SDS011;24025;48.138;11.428;2023-05-07T05:45:38;2.05;;;1.58;;
38224;SDS011;24025;48.138;11.428;2023-05-07T05:48:11;2.65;;;1.83;;
38224;SDS011;24025;48.138;11.428;2023-05-07T05:50:43;6.78;;;1.50;;
38224;SDS011;24025;48.138;11.428;2023-05-07T05:53:14;1.80;;;1.33;;
38224;SDS011;24025;48.138;11.428;2023-05-07T05:55:46;2.08;;;1.73;;
38224;SDS011;24025;48.138;11.428;2023-05-07T05:58:18;2.53;;;1.50;;
38224;SDS011;24025;48.138;11.428;2023-05-07T06:00:50;4.55;;;2.08;;
38224;SDS011;24025;48.138;11.428;2023-05-07T06:03:23;9.13;;;3.67;;
38224;SDS011;24025;48.138;11.428;2023-05-07T06:05:55;2.33;;;2.00;;
38224;SDS011;24025;48.138;11.428;2023-05-07T06:08:28;3.58;;;1.60;;
38224;SDS011;24025;48.138;11.428;2023-05-07T06:11:01;5.55;;;2.10;;
38224;SDS011;24025;48.138;11.428;2023-05-07T06:13:32;1.92;;;1.70;;
38224;SDS011;24025;48.138;11.428;2023-05-07T06:16:04;3.78;;;2.03;;
38224;SDS011;24025;48.138;11.428;2023-05-07T06:18:36;2.20;;;1.98;;
38224;SDS011;24025;48.138;11.428;2023-05-07T06:21:08;6.53;;;1.88;;
38224;SDS011;24025;48.138;11.428;2023-05-07T06:23:41;2.30;;;1.80;;
38224;SDS011;24025;48.138;11.428;2023-05-07T06:26:12;4.97;;;1.83;;
38224;SDS011;24025;48.138;11.428;2023-05-07T06:28:44;1.90;;;1.75;;
38224;SDS011;24025;48.138;11.428;2023-05-07T06:31:16;3.08;;;2.10;;
38224;SDS011;24025;48.138;11.428;2023-05-07T06:33:49;3.35;;;2.15;;
38224;SDS011;24025;48.138;11.428;2023-05-07T06:36:21;8.95;;;2.03;;
38224;SDS011;24025;48.138;11.428;2023-05-07T06:38:52;5.50;;;2.95;;
38224;SDS011;24025;48.138;11.428;2023-05-07T06:41:24;6.68;;;2.65;;
38224;SDS011;24025;48.138;11.428;2023-05-07T06:43:57;2.88;;;2.28;;
38224;SDS011;24025;48.138;11.428;2023-05-07T06:46:28;5.47;;;2.50;;
38224;SDS011;24025;48.138;11.428;2023-05-07T06:49:00;2.83;;;2.50;;
38224;SDS011;24025;48.138;11.428;2023-05-07T06:51:32;4.15;;;2.13;;
38224;SDS011;24025;48.138;11.428;2023-05-07T06:54:03;2.80;;;2.05;;
38224;SDS011;24025;48.138;11.428;2023-05-07T06:56:35;3.05;;;1.92;;
38224;SDS011;24025;48.138;11.428;2023-05-07T06:59:07;2.33;;;1.75;;
38224;SDS011;24025;48.138;11.428;2023-05-07T07:01:38;4.65;;;2.05;;
38224;SDS011;24025;48.138;11.428;2023-05-07T07:04:10;5.55;;;2.05;;
38224;SDS011;24025;48.138;11.428;2023-05-07T07:06:42;2.30;;;1.83;;
38224;SDS011;24025;48.138;11.428;2023-05-07T07:09:14;4.40;;;1.90;;
38224;SDS011;24025;48.138;11.428;2023-05-07T07:11:45;6.20;;;1.70;;
38224;SDS011;24025;48.138;11.428;2023-05-07T07:14:17;2.33;;;1.98;;
38224;SDS011;24025;48.138;11.428;2023-05-07T07:16:48;2.65;;;1.40;;
38224;SDS011;24025;48.138;11.428;2023-05-07T07:19:20;2.30;;;1.70;;
38224;SDS011;24025;48.138;11.428;2023-05-07T07:21:51;5.88;;;1.83;;
38224;SDS011;24025;48.138;11.428;2023-05-07T07:24:23;1.80;;;1.50;;
38224;SDS011;24025;48.138;11.428;2023-05-07T07:26:54;2.88;;;1.65;;
38224;SDS011;24025;48.138;11.428;2023-05-07T07:29:26;1.58;;;1.48;;
38224;SDS011;24025;48.138;11.428;2023-05-07T07:31:58;2.13;;;1.60;;
38224;SDS011;24025;48.138;11.428;2023-05-07T07:34:30;4.22;;;1.60;;
38224;SDS011;24025;48.138;11.428;2023-05-07T07:37:01;2.33;;;1.40;;
38224;SDS011;24025;48.138;11.428;2023-05-07T07:39:36;1.92;;;1.67;;
38224;SDS011;24025;48.138;11.428;2023-05-07T07:42:09;4.07;;;2.33;;
38224;SDS011;24025;48.138;11.428;2023-05-07T07:44:40;2.60;;;1.80;;
38224;SDS011;24025;48.138;11.428;2023-05-07T07:47:12;9.50;;;2.03;;
38224;SDS011;24025;48.138;11.428;2023-05-07T07:49:44;5.22;;;1.60;;
38224;SDS011;24025;48.138;11.428;2023-05-07T07:52:16;3.17;;;1.75;;
38224;SDS011;24025;48.138;11.428;2023-05-07T07:54:48;5.68;;;1.90;;
38224;SDS011;24025;48.138;11.428;2023-05-07T07:57:19;1.70;;;1.60;;
38224;SDS011;24025;48.138;11.428;2023-05-07T07:59:51;3.08;;;1.60;;
38224;SDS011;24025;48.138;11.428;2023-05-07T08:02:23;2.38;;;1.55;;
38224;SDS011;24025;48.138;11.428;2023-05-07T08:04:54;3.13;;;1.35;;
38224;SDS011;24025;48.138;11.428;2023-05-07T08:07:26;2.90;;;1.85;;
38224;SDS011;24025;48.138;11.428;2023-05-07T08:09:58;3.67;;;1.52;;
38224;SDS011;24025;48.138;11.428;2023-05-07T08:12:29;2.65;;;1.60;;
38224;SDS011;24025;48.138;11.428;2023-05-07T08:15:01;3.65;;;1.40;;
38224;SDS011;24025;48.138;11.428;2023-05-07T08:17:33;3.22;;;1.55;;
38224;SDS011;24025;48.138;11.428;2023-05-07T08:20:05;2.97;;;1.55;;
38224;SDS011;24025;48.138;11.428;2023-05-07T08:22:37;2.10;;;1.40;;
38224;SDS011;24025;48.138;11.428;2023-05-07T08:25:09;3.78;;;1.55;;
38224;SDS011;24025;48.138;11.428;2023-05-07T08:27:41;4.47;;;1.52;;
38224;SDS011;24025;48.138;11.428;2023-05-07T08:30:12;2.92;;;1.30;;
38224;SDS011;24025;48.138;11.428;2023-05-07T08:35:16;3.63;;;1.63;;
38224;SDS011;24025;48.138;11.428;2023-05-07T08:37:47;2.00;;;1.33;;
38224;SDS011;24025;48.138;11.428;2023-05-07T08:40:19;2.70;;;1.60;;
38224;SDS011;24025;48.138;11.428;2023-05-07T08:42:53;5.85;;;1.50;;
38224;SDS011;24025;48.138;11.428;2023-05-07T08:45:24;1.95;;;1.40;;
38224;SDS011;24025;48.138;11.428;2023-05-07T08:47:59;3.83;;;1.60;;
38224;SDS011;24025;48.138;11.428;2023-05-07T08:50:35;2.65;;;2.13;;
38224;SDS011;24025;48.138;11.428;2023-05-07T08:53:07;3.80;;;1.80;;
38224;SDS011;24025;48.138;11.428;2023-05-07T08:55:38;3.15;;;1.60;;
38224;SDS011;24025;48.138;11.428;2023-05-07T08:58:10;1.80;;;1.27;;
38224;SDS011;24025;48.138;11.428;2023-05-07T09:00:42;2.95;;;1.60;;
38224;SDS011;24025;48.138;11.428;2023-05-07T09:05:46;2.87;;;1.60;;
38224;SDS011;24025;48.138;11.428;2023-05-07T09:08:17;5.50;;;2.15;;
38224;SDS011;24025;48.138;11.428;2023-05-07T09:10:49;2.63;;;1.27;;
38224;SDS011;24025;48.138;11.428;2023-05-07T09:13:20;2.15;;;1.35;;
38224;SDS011;24025;48.138;11.428;2023-05-07T09:15:52;2.97;;;0.80;;
38224;SDS011;24025;48.138;11.428;2023-05-07T09:18:24;3.67;;;1.05;;
38224;SDS011;24025;48.138;11.428;2023-05-07T09:20:56;3.10;;;1.15;;
38224;SDS011;24025;48.138;11.428;2023-05-07T09:23:28;3.08;;;1.10;;
38224;SDS011;24025;48.138;11.428;2023-05-07T09:25:59;1.75;;;1.17;;
38224;SDS011;24025;48.138;11.428;2023-05-07T09:28:31;3.75;;;2.03;;
38224;SDS011;24025;48.138;11.428;2023-05-07T09:31:04;1.55;;;0.80;;
38224;SDS011;24025;48.138;11.428;2023-05-07T09:33:36;2.17;;;1.52;;
38224;SDS011;24025;48.138;11.428;2023-05-07T09:36:08;2.28;;;0.98;;
38224;SDS011;24025;48.138;11.428;2023-05-07T09:38:41;2.03;;;0.82;;
38224;SDS011;24025;48.138;11.428;2023-05-07T09:41:13;2.05;;;1.20;;
38224;SDS011;24025;48.138;11.428;2023-05-07T09:43:44;1.95;;;1.00;;
38224;SDS011;24025;48.138;11.428;2023-05-07T09:46:16;2.58;;;1.33;;
38224;SDS011;24025;48.138;11.428;2023-05-07T09:48:52;2.10;;;1.52;;
38224;SDS011;24025;48.138;11.428;2023-05-07T09:51:25;2.20;;;0.98;;
38224;SDS011;24025;48.138;11.428;2023-05-07T09:54:02;1.48;;;0.90;;
38224;SDS011;24025;48.138;11.428;2023-05-07T09:56:34;2.17;;;1.15;;
38224;SDS011;24025;48.138;11.428;2023-05-07T09:59:10;2.10;;;1.20;;
38224;SDS011;24025;48.138;11.428;2023-05-07T10:01:45;3.10;;;1.40;;
38224;SDS011;24025;48.138;11.428;2023-05-07T10:11:54;3.55;;;1.55;;
38224;SDS011;24025;48.138;11.428;2023-05-07T10:14:26;1.60;;;1.40;;
38224;SDS011;24025;48.138;11.428;2023-05-07T10:16:59;2.60;;;1.70;;
38224;SDS011;24025;48.138;11.428;2023-05-07T10:19:31;4.75;;;1.40;;
38224;SDS011;24025;48.138;11.428;2023-05-07T10:22:05;4.28;;;1.70;;
38224;SDS011;24025;48.138;11.428;2023-05-07T10:24:37;1.67;;;1.25;;
38224;SDS011;24025;48.138;11.428;2023-05-07T10:27:10;1.95;;;1.42;;
38224;SDS011;24025;48.138;11.428;2023-05-07T10:32:42;2.95;;;1.17;;
38224;SDS011;24025;48.138;11.428;2023-05-07T10:35:23;1.38;;;1.27;;
38224;SDS011;24025;48.138;11.428;2023-05-07T10:37:57;2.30;;;1.25;;
38224;SDS011;24025;48.138;11.428;2023-05-07T10:40:30;2.63;;;1.17;;
38224;SDS011;24025;48.138;11.428;2023-05-07T10:43:03;2.05;;;1.33;;
38224;SDS011;24025;48.138;11.428;2023-05-07T10:45:40;3.58;;;2.10;;
38224;SDS011;24025;48.138;11.428;2023-05-07T10:48:13;1.58;;;1.25;;
38224;SDS011;24025;48.138;11.428;2023-05-07T10:51:22;1.67;;;1.10;;
38224;SDS011;24025;48.138;11.428;2023-05-07T10:54:27;3.25;;;1.02;;
38224;SDS011;24025;48.138;11.428;2023-05-07T10:56:52;2.97;;;1.00;;
38224;SDS011;24025;48.138;11.428;2023-05-07T10:59:30;2.50;;;1.00;;
38224;SDS011;24025;48.138;11.428;2023-05-07T11:02:03;1.63;;;0.85;;
38224;SDS011;24025;48.138;11.428;2023-05-07T11:04:35;3.72;;;1.25;;
38224;SDS011;24025;48.138;11.428;2023-05-07T11:12:46;1.60;;;0.75;;
38224;SDS011;24025;48.138;11.428;2023-05-07T11:18:25;2.35;;;0.95;;
38224;SDS011;24025;48.138;11.428;2023-05-07T11:24:21;1.35;;;0.77;;
38224;SDS011;24025;48.138;11.428;2023-05-07T11:26:54;3.95;;;0.82;;
38224;SDS011;24025;48.138;11.428;2023-05-07T11:29:26;1.58;;;0.98;;
38224;SDS011;24025;48.138;11.428;2023-05-07T11:32:00;1.10;;;0.68;;
38224;SDS011;24025;48.138;11.428;2023-05-07T11:34:32;2.47;;;0.85;;
38224;SDS011;24025;48.138;11.428;2023-05-07T11:37:04;4.35;;;1.05;;
38224;SDS011;24025;48.138;11.428;2023-05-07T11:39:36;3.28;;;1.55;;
38224;SDS011;24025;48.138;11.428;2023-05-07T11:42:24;2.63;;;0.80;;
38224;SDS011;24025;48.138;11.428;2023-05-07T11:44:58;1.85;;;0.80;;
38224;SDS011;24025;48.138;11.428;2023-05-07T11:47:29;1.88;;;0.90;;
38224;SDS011;24025;48.138;11.428;2023-05-07T11:50:03;2.85;;;0.88;;
38224;SDS011;24025;48.138;11.428;2023-05-07T11:52:36;1.38;;;1.00;;
38224;SDS011;24025;48.138;11.428;2023-05-07T11:55:10;1.65;;;0.75;;
38224;SDS011;24025;48.138;11.428;2023-05-07T11:57:42;2.08;;;1.05;;
38224;SDS011;24025;48.138;11.428;2023-05-07T12:00:15;3.22;;;1.05;;
38224;SDS011;24025;48.138;11.428;2023-05-07T12:02:47;3.08;;;1.48;;
38224;SDS011;24025;48.138;11.428;2023-05-07T12:07:55;2.83;;;1.17;;
38224;SDS011;24025;48.138;11.428;2023-05-07T12:10:27;3.63;;;1.00;;
38224;SDS011;24025;48.138;11.428;2023-05-07T12:12:59;1.05;;;0.95;;
38224;SDS011;24025;48.138;11.428;2023-05-07T12:15:31;2.95;;;1.20;;
38224;SDS011;24025;48.138;11.428;2023-05-07T12:18:06;2.75;;;1.35;;
38224;SDS011;24025;48.138;11.428;2023-05-07T12:20:38;1.70;;;1.40;;
38224;SDS011;24025;48.138;11.428;2023-05-07T12:23:10;3.33;;;1.10;;
38224;SDS011;24025;48.138;11.428;2023-05-07T12:28:18;4.10;;;1.08;;
38224;SDS011;24025;48.138;11.428;2023-05-07T12:30:50;4.30;;;1.25;;
38224;SDS011;24025;48.138;11.428;2023-05-07T12:33:24;1.55;;;1.10;;
38224;SDS011;24025;48.138;11.428;2023-05-07T12:35:57;1.48;;;1.23;;
38224;SDS011;24025;48.138;11.428;2023-05-07T12:38:32;2.05;;;1.20;;
38224;SDS011;24025;48.138;11.428;2023-05-07T12:41:07;1.55;;;1.10;;
38224;SDS011;24025;48.138;11.428;2023-05-07T12:43:39;2.60;;;1.40;;
38224;SDS011;24025;48.138;11.428;2023-05-07T12:46:15;3.55;;;1.60;;
38224;SDS011;24025;48.138;11.428;2023-05-07T12:48:49;3.28;;;1.23;;
38224;SDS011;24025;48.138;11.428;2023-05-07T12:51:21;1.77;;;0.88;;
38224;SDS011;24025;48.138;11.428;2023-05-07T12:53:55;3.45;;;1.60;;
38224;SDS011;24025;48.138;11.428;2023-05-07T12:56:27;2.15;;;1.23;;
38224;SDS011;24025;48.138;11.428;2023-05-07T12:59:02;1.38;;;0.60;;
38224;SDS011;24025;48.138;11.428;2023-05-07T13:01:34;1.38;;;0.80;;
38224;SDS011;24025;48.138;11.428;2023-05-07T13:06:38;1.33;;;1.00;;
38224;SDS011;24025;48.138;11.428;2023-05-07T13:11:43;3.13;;;0.85;;
38224;SDS011;24025;48.138;11.428;2023-05-07T13:14:15;1.70;;;1.25;;
38224;SDS011;24025;48.138;11.428;2023-05-07T13:16:47;1.33;;;0.82;;
38224;SDS011;24025;48.138;11.428;2023-05-07T13:19:19;3.30;;;1.88;;
38224;SDS011;24025;48.138;11.428;2023-05-07T13:21:51;2.38;;;0.98;;
38224;SDS011;24025;48.138;11.428;2023-05-07T13:24:22;1.42;;;0.85;;
38224;SDS011;24025;48.138;11.428;2023-05-07T13:26:54;1.73;;;1.05;;
38224;SDS011;24025;48.138;11.428;2023-05-07T13:29:26;2.92;;;2.45;;
38224;SDS011;24025;48.138;11.428;2023-05-07T13:32:01;7.75;;;1.02;;
38224;SDS011;24025;48.138;11.428;2023-05-07T13:34:32;3.95;;;1.02;;
38224;SDS011;24025;48.138;11.428;2023-05-07T13:37:04;1.33;;;1.00;;
38224;SDS011;24025;48.138;11.428;2023-05-07T13:39:36;2.42;;;1.25;;
38224;SDS011;24025;48.138;11.428;2023-05-07T13:42:07;2.45;;;0.82;;
38224;SDS011;24025;48.138;11.428;2023-05-07T13:44:39;1.80;;;1.10;;
38224;SDS011;24025;48.138;11.428;2023-05-07T13:47:11;3.38;;;0.75;;
38224;SDS011;24025;48.138;11.428;2023-05-07T13:49:42;1.40;;;0.93;;
38224;SDS011;24025;48.138;11.428;2023-05-07T13:52:14;2.70;;;1.05;;
38224;SDS011;24025;48.138;11.428;2023-05-07T13:57:17;2.28;;;0.85;;
38224;SDS011;24025;48.138;11.428;2023-05-07T13:59:49;1.15;;;0.82;;
38224;SDS011;24025;48.138;11.428;2023-05-07T14:02:21;3.30;;;1.00;;
38224;SDS011;24025;48.138;11.428;2023-05-07T14:07:24;3.53;;;1.05;;
38224;SDS011;24025;48.138;11.428;2023-05-07T14:09:56;3.03;;;0.88;;
38224;SDS011;24025;48.138;11.428;2023-05-07T14:12:28;2.38;;;0.98;;
38224;SDS011;24025;48.138;11.428;2023-05-07T14:15:01;3.88;;;0.98;;
38224;SDS011;24025;48.138;11.428;2023-05-07T14:17:33;2.10;;;1.10;;
38224;SDS011;24025;48.138;11.428;2023-05-07T14:20:06;2.25;;;0.80;;
38224;SDS011;24025;48.138;11.428;2023-05-07T14:22:38;2.13;;;1.00;;
38224;SDS011;24025;48.138;11.428;2023-05-07T14:25:10;2.42;;;0.80;;
38224;SDS011;24025;48.138;11.428;2023-05-07T14:30:14;1.23;;;0.98;;
38224;SDS011;24025;48.138;11.428;2023-05-07T14:32:45;2.42;;;0.80;;
38224;SDS011;24025;48.138;11.428;2023-05-07T14:35:17;1.38;;;0.90;;
38224;SDS011;24025;48.138;11.428;2023-05-07T14:37:49;1.77;;;1.23;;
38224;SDS011;24025;48.138;11.428;2023-05-07T14:40:20;2.88;;;1.45;;
38224;SDS011;24025;48.138;11.428;2023-05-07T14:42:53;1.00;;;0.80;;
38224;SDS011;24025;48.138;11.428;2023-05-07T14:45:28;2.47;;;1.10;;
38224;SDS011;24025;48.138;11.428;2023-05-07T14:47:59;1.60;;;1.20;;
38224;SDS011;24025;48.138;11.428;2023-05-07T14:50:31;2.05;;;1.20;;
38224;SDS011;24025;48.138;11.428;2023-05-07T14:53:03;1.42;;;1.33;;
38224;SDS011;24025;48.138;11.428;2023-05-07T14:55:36;2.80;;;1.27;;
38224;SDS011;24025;48.138;11.428;2023-05-07T14:58:07;4.35;;;1.50;;
38224;SDS011;24025;48.138;11.428;2023-05-07T15:00:39;1.92;;;1.10;;
38224;SDS011;24025;48.138;11.428;2023-05-07T15:05:43;3.83;;;2.08;;
38224;SDS011;24025;48.138;11.428;2023-05-07T15:10:46;1.95;;;1.17;;
38224;SDS011;24025;48.138;11.428;2023-05-07T15:13:18;2.67;;;1.05;;
38224;SDS011;24025;48.138;11.428;2023-05-07T15:15:49;2.03;;;1.30;;
38224;SDS011;24025;48.138;11.428;2023-05-07T15:20:53;1.80;;;1.23;;
38224;SDS011;24025;48.138;11.428;2023-05-07T15:23:26;2.67;;;1.17;;
38224;SDS011;24025;48.138;11.428;2023-05-07T15:25:57;2.90;;;1.13;;
38224;SDS011;24025;48.138;11.428;2023-05-07T15:28:29;1.80;;;1.45;;
38224;SDS011;24025;48.138;11.428;2023-05-07T15:33:32;4.05;;;1.50;;
38224;SDS011;24025;48.138;11.428;2023-05-07T15:38:38;4.55;;;1.85;;
38224;SDS011;24025;48.138;11.428;2023-05-07T15:41:10;2.53;;;1.40;;
38224;SDS011;24025;48.138;11.428;2023-05-07T15:43:46;1.45;;;1.10;;
38224;SDS011;24025;48.138;11.428;2023-05-07T15:46:21;3.00;;;1.30;;
38224;SDS011;24025;48.138;11.428;2023-05-07T15:48:57;2.78;;;1.30;;
38224;SDS011;24025;48.138;11.428;2023-05-07T15:51:33;4.28;;;1.13;;
38224;SDS011;24025;48.138;11.428;2023-05-07T15:54:06;3.35;;;1.88;;
38224;SDS011;24025;48.138;11.428;2023-05-07T15:56:37;4.43;;;1.15;;
38224;SDS011;24025;48.138;11.428;2023-05-07T16:01:43;1.48;;;1.10;;
38224;SDS011;24025;48.138;11.428;2023-05-07T16:04:15;2.55;;;1.00;;
38224;SDS011;24025;48.138;11.428;2023-05-07T16:06:47;3.47;;;1.08;;
38224;SDS011;24025;48.138;11.428;2023-05-07T16:09:19;3.55;;;1.23;;
38224;SDS011;24025;48.138;11.428;2023-05-07T16:11:51;3.33;;;1.23;;
38224;SDS011;24025;48.138;11.428;2023-05-07T16:14:25;2.70;;;1.25;;